createdAt,value
2022-08-16T00:01:40.986Z,12.20
2022-08-16T00:04:28.688Z,12.65
2022-08-16T00:07:15.659Z,12.88
2022-08-16T00:10:06.176Z,11.38
2022-08-16T00:12:53.764Z,12.75
2022-08-16T00:15:51.600Z,12.45
2022-08-16T00:18:41.019Z,13.57
2022-08-16T00:21:28.971Z,13.40
2022-08-16T00:24:32.480Z,14.10
2022-08-16T00:27:19.916Z,13.52
2022-08-16T00:30:25.025Z,11.77
2022-08-16T00:33:16.568Z,12.27
2022-08-16T00:36:03.986Z,13.68
2022-08-16T00:38:51.619Z,14.40
2022-08-16T00:41:44.142Z,15.43
2022-08-16T00:44:35.349Z,14.77
2022-08-16T00:47:25.563Z,14.10
2022-08-16T00:50:21.399Z,14.75
2022-08-16T00:53:12.681Z,15.57
2022-08-16T00:56:05.176Z,15.05
2022-08-16T00:58:53.274Z,16.02
2022-08-16T01:01:43.086Z,16.45
2022-08-16T01:04:31.014Z,16.48
2022-08-16T01:07:17.990Z,16.63
2022-08-16T01:10:05.755Z,15.93
2022-08-16T01:13:15.278Z,14.13
2022-08-16T01:16:19.947Z,16.50
2022-08-16T01:19:36.071Z,17.02
2022-08-16T01:22:50.126Z,13.68
2022-08-16T01:25:44.158Z,14.20
2022-08-16T01:28:34.692Z,13.55
2022-08-16T01:31:31.043Z,14.25
2022-08-16T01:34:25.049Z,14.70
2022-08-16T01:37:16.165Z,13.60
2022-08-16T01:40:06.940Z,13.73
2022-08-16T01:42:55.450Z,11.90
2022-08-16T01:45:43.881Z,12.13
2022-08-16T01:48:32.370Z,12.40
2022-08-16T01:51:24.875Z,11.40
2022-08-16T01:54:13.458Z,13.23
2022-08-16T01:57:03.791Z,10.45
2022-08-16T01:59:54.719Z,12.07
2022-08-16T02:02:43.297Z,11.95
2022-08-16T02:05:30.863Z,12.85
2022-08-16T02:08:33.798Z,12.45
2022-08-16T02:11:23.180Z,12.88
2022-08-16T02:14:18.089Z,13.20
2022-08-16T02:17:11.544Z,12.02
2022-08-16T02:20:00.665Z,13.20
2022-08-16T02:22:48.191Z,14.02
2022-08-16T02:25:52.235Z,13.50
2022-08-16T02:28:47.023Z,12.90
2022-08-16T02:32:03.332Z,13.23
2022-08-16T02:34:41.490Z,14.60
2022-08-16T02:37:52.123Z,14.57
2022-08-16T02:40:36.096Z,15.70
2022-08-16T02:43:26.676Z,14.38
2022-08-16T02:46:14.141Z,14.85
2022-08-16T02:49:02.715Z,16.75
2022-08-16T02:51:50.215Z,16.02
2022-08-16T02:54:37.559Z,15.77
2022-08-16T02:57:26.153Z,14.13
2022-08-16T03:00:34.097Z,13.40
2022-08-16T03:03:22.179Z,14.95
2022-08-16T03:06:42.068Z,13.55
2022-08-16T03:09:16.475Z,13.38
2022-08-16T03:12:05.355Z,14.98
2022-08-16T03:14:52.361Z,14.57
2022-08-16T03:17:53.441Z,14.48
2022-08-16T03:20:41.591Z,14.88
2022-08-16T03:23:35.531Z,14.40
2022-08-16T03:26:23.066Z,14.65
2022-08-16T03:29:12.132Z,13.05
2022-08-16T03:32:01.867Z,14.20
2022-08-16T03:34:50.075Z,13.32
2022-08-16T03:38:01.889Z,15.55
2022-08-16T03:40:44.864Z,14.82
2022-08-16T03:43:51.172Z,13.75
2022-08-16T03:46:47.799Z,13.27
2022-08-16T03:49:37.531Z,14.50
2022-08-16T03:52:31.262Z,14.38
2022-08-16T03:55:18.927Z,14.65
2022-08-16T03:58:07.415Z,14.73
2022-08-16T04:00:59.147Z,13.63
2022-08-16T04:03:46.479Z,15.45
2022-08-16T04:06:33.481Z,14.82
2022-08-16T04:09:20.726Z,14.10
2022-08-16T04:13:20.458Z,12.65
2022-08-16T04:15:17.986Z,14.38
2022-08-16T04:18:05.706Z,14.02
2022-08-16T04:20:54.820Z,15.60
2022-08-16T04:23:43.487Z,14.95
2022-08-16T04:26:32.044Z,13.85
2022-08-16T04:29:23.459Z,16.15
2022-08-16T04:32:11.778Z,16.60
2022-08-16T04:35:06.378Z,15.98
2022-08-16T04:37:55.573Z,14.57
2022-08-16T04:40:42.608Z,15.93
2022-08-16T04:43:29.806Z,15.32
2022-08-16T04:47:01.160Z,17.73
2022-08-16T04:49:24.399Z,16.13
2022-08-16T04:52:32.679Z,17.77
2022-08-16T04:55:31.895Z,16.25
2022-08-16T04:58:44.946Z,16.10
2022-08-16T05:01:57.718Z,18.40
2022-08-16T05:04:39.723Z,18.33
2022-08-16T05:07:26.995Z,18.85
2022-08-16T05:10:19.966Z,15.10
2022-08-16T05:13:15.553Z,15.02
2022-08-16T05:16:02.965Z,15.05
2022-08-16T05:18:51.738Z,17.95
2022-08-16T05:21:39.621Z,18.88
2022-08-16T05:24:26.692Z,18.20
2022-08-16T05:27:13.621Z,17.92
2022-08-16T05:30:16.680Z,16.77
2022-08-16T05:33:16.510Z,14.85
2022-08-16T05:36:14.118Z,16.88
2022-08-16T05:39:02.394Z,18.67
2022-08-16T05:41:51.860Z,19.60
2022-08-16T05:44:39.050Z,20.23
2022-08-16T05:47:27.243Z,19.25
2022-08-16T05:50:19.280Z,19.45
2022-08-16T05:53:06.887Z,20.13
2022-08-16T05:55:57.025Z,20.33
2022-08-16T05:58:44.001Z,20.67
2022-08-16T06:01:32.835Z,20.75
2022-08-16T06:04:34.778Z,20.98
2022-08-16T06:07:26.323Z,21.45
2022-08-16T06:10:14.558Z,18.58
2022-08-16T06:13:19.100Z,19.83
2022-08-16T06:16:07.536Z,20.30
2022-08-16T06:18:54.659Z,21.45
2022-08-16T06:21:42.083Z,21.70
2022-08-16T06:24:53.569Z,21.58
2022-08-16T06:27:39.784Z,21.58
2022-08-16T06:30:28.708Z,20.95
2022-08-16T06:33:22.704Z,22.85
2022-08-16T06:36:13.854Z,20.95
2022-08-16T06:39:01.436Z,22.25
2022-08-16T06:41:53.168Z,23.08
2022-08-16T06:44:40.133Z,22.80
2022-08-16T06:47:52.936Z,23.70
2022-08-16T06:50:36.697Z,22.95
2022-08-16T06:53:25.151Z,24.45
2022-08-16T06:56:14.523Z,24.90
2022-08-16T06:59:10.548Z,22.85
2022-08-16T07:01:58.536Z,24.40
2022-08-16T07:04:45.686Z,21.67
2022-08-16T07:07:34.564Z,22.65
2022-08-16T07:10:25.798Z,20.85
2022-08-16T07:13:16.673Z,20.25
2022-08-16T07:16:20.623Z,19.27
2022-08-16T07:19:08.941Z,18.10
2022-08-16T07:21:59.310Z,17.42
2022-08-16T07:24:47.592Z,15.00
2022-08-16T07:27:37.713Z,16.30
2022-08-16T07:30:38.799Z,14.65
2022-08-16T07:33:52.467Z,13.27
2022-08-16T07:36:41.574Z,12.85
2022-08-16T07:39:33.938Z,13.25
2022-08-16T07:42:28.429Z,13.05
2022-08-16T07:45:21.970Z,14.60
2022-08-16T07:48:11.116Z,13.30
2022-08-16T07:51:00.869Z,13.13
2022-08-16T07:54:02.449Z,11.55
2022-08-16T07:56:57.343Z,12.63
2022-08-16T07:59:46.103Z,10.52
2022-08-16T08:02:33.716Z,10.90
2022-08-16T08:05:35.407Z,9.73
2022-08-16T08:08:50.316Z,9.73
2022-08-16T08:11:31.117Z,9.68
2022-08-16T08:14:29.794Z,8.93
2022-08-16T08:17:17.853Z,8.43
2022-08-16T08:20:08.102Z,8.05
2022-08-16T08:23:00.539Z,7.95
2022-08-16T08:25:54.822Z,6.85
2022-08-16T08:28:42.453Z,7.28
2022-08-16T08:31:29.455Z,6.32
2022-08-16T08:34:19.604Z,6.10
2022-08-16T08:37:06.632Z,5.43
2022-08-16T08:39:55.496Z,5.75
2022-08-16T08:42:43.616Z,4.82
2022-08-16T08:45:52.677Z,5.25
2022-08-16T08:48:40.436Z,5.43
2022-08-16T08:51:32.017Z,5.60
2022-08-16T08:54:23.061Z,5.63
2022-08-16T08:57:10.069Z,4.90
2022-08-16T08:59:58.000Z,5.28
2022-08-16T09:02:52.144Z,4.97
2022-08-16T09:05:39.540Z,5.57
2022-08-16T09:08:31.317Z,5.10
2022-08-16T09:11:22.138Z,5.18
2022-08-16T09:14:28.135Z,5.60
2022-08-16T09:17:38.368Z,4.65
2022-08-16T09:20:27.617Z,5.10
2022-08-16T09:23:15.156Z,4.95
2022-08-16T09:26:45.632Z,4.70
2022-08-16T09:29:24.095Z,4.70
2022-08-16T09:32:28.446Z,4.47
2022-08-16T09:35:17.118Z,5.80
2022-08-16T09:38:04.829Z,4.82
2022-08-16T09:40:57.364Z,5.28
2022-08-16T09:43:58.856Z,5.78
2022-08-16T09:46:49.367Z,5.40
2022-08-16T09:49:37.432Z,5.75
2022-08-16T09:52:28.217Z,5.75
2022-08-16T09:55:15.240Z,6.32
2022-08-16T09:58:02.923Z,5.70
2022-08-16T10:00:53.151Z,5.72
2022-08-16T10:04:02.596Z,6.43
2022-08-16T10:06:49.342Z,5.82
2022-08-16T10:09:54.092Z,6.20
2022-08-16T10:13:01.477Z,5.75
2022-08-16T10:15:55.539Z,5.90
2022-08-16T10:19:01.497Z,5.60
2022-08-16T10:21:56.225Z,5.32
2022-08-16T10:24:55.943Z,5.53
2022-08-16T10:27:57.007Z,5.93
2022-08-16T10:30:58.965Z,5.85
2022-08-16T10:33:46.606Z,6.65
2022-08-16T10:36:39.252Z,6.28
2022-08-16T10:39:40.871Z,6.65
2022-08-16T10:42:29.019Z,7.03
2022-08-16T10:45:18.096Z,7.05
2022-08-16T10:48:27.251Z,6.55
2022-08-16T10:51:16.018Z,7.03
2022-08-16T10:54:04.969Z,6.38
2022-08-16T10:56:57.100Z,6.78
2022-08-16T10:59:51.748Z,6.72
2022-08-16T11:02:58.362Z,6.60
2022-08-16T11:06:06.251Z,6.40
2022-08-16T11:12:13.758Z,7.13
2022-08-16T11:15:18.057Z,7.25
2022-08-16T11:18:48.724Z,6.30
2022-08-16T11:21:28.448Z,6.72
2022-08-16T11:24:41.192Z,6.90
2022-08-16T11:27:35.654Z,6.60
2022-08-16T11:30:28.299Z,6.95
2022-08-16T11:33:52.176Z,7.30
2022-08-16T11:36:32.811Z,7.20
2022-08-16T11:39:20.245Z,6.93
2022-08-16T11:42:16.786Z,7.10
2022-08-16T11:45:14.216Z,7.80
2022-08-16T11:48:03.370Z,6.88
2022-08-16T11:50:50.867Z,6.38
2022-08-16T11:53:38.673Z,7.20
2022-08-16T11:56:40.038Z,7.65
2022-08-16T11:59:33.847Z,7.35
2022-08-16T12:02:32.173Z,8.05
2022-08-16T12:05:20.139Z,7.68
2022-08-16T12:08:10.289Z,7.32
2022-08-16T12:11:02.527Z,6.70
2022-08-16T12:13:51.611Z,7.53
2022-08-16T12:16:38.614Z,8.43
2022-08-16T12:19:35.304Z,7.85
2022-08-16T12:22:24.674Z,7.00
2022-08-16T12:25:15.275Z,8.32
2022-08-16T12:28:03.650Z,8.15
2022-08-16T12:30:52.714Z,7.28
2022-08-16T12:33:44.891Z,7.45
2022-08-16T12:36:32.056Z,6.93
2022-08-16T12:39:20.364Z,6.80
2022-08-16T12:42:12.068Z,5.65
2022-08-16T12:44:59.014Z,6.63
2022-08-16T12:48:32.917Z,7.47
2022-08-16T12:51:22.189Z,6.85
2022-08-16T12:54:11.258Z,6.60
2022-08-16T12:56:58.783Z,7.15
2022-08-16T12:59:45.773Z,6.80
2022-08-16T13:02:43.021Z,6.30
2022-08-16T13:08:20.368Z,4.97
2022-08-16T13:11:08.121Z,5.18
2022-08-16T13:13:55.423Z,5.30
2022-08-16T13:16:42.579Z,6.63
2022-08-16T13:20:03.481Z,6.75
2022-08-16T13:22:45.378Z,6.80
2022-08-16T13:25:34.039Z,6.45
2022-08-16T13:28:21.283Z,6.47
2022-08-16T13:31:08.542Z,7.38
2022-08-16T13:33:58.853Z,7.22
2022-08-16T13:36:49.565Z,6.88
2022-08-16T13:39:36.969Z,7.32
2022-08-16T13:42:27.320Z,7.93
2022-08-16T13:45:16.707Z,7.55
2022-08-16T13:48:05.446Z,7.10
2022-08-16T13:50:55.129Z,7.13
2022-08-16T13:53:44.004Z,6.82
2022-08-16T13:56:37.745Z,6.88
2022-08-16T13:59:29.509Z,6.50
2022-08-16T14:02:16.999Z,6.10
2022-08-16T14:05:06.422Z,6.00
2022-08-16T14:07:53.468Z,6.70
2022-08-16T14:10:40.548Z,6.53
2022-08-16T14:13:27.819Z,6.55
2022-08-16T14:16:23.716Z,6.40
2022-08-16T14:19:13.753Z,6.00
2022-08-16T14:22:13.464Z,5.47
2022-08-16T14:25:03.008Z,5.70
2022-08-16T14:27:52.392Z,5.90
2022-08-16T14:30:41.812Z,5.40
2022-08-16T14:33:32.033Z,4.90
2022-08-16T14:36:29.794Z,5.47
2022-08-16T14:39:17.139Z,4.47
2022-08-16T14:42:13.499Z,5.50
2022-08-16T14:45:00.777Z,5.85
2022-08-16T14:47:49.749Z,6.10
2022-08-16T14:50:37.754Z,5.40
2022-08-16T14:53:26.682Z,5.32
2022-08-16T14:56:15.039Z,6.13
2022-08-16T14:59:20.806Z,6.03
2022-08-16T15:02:33.836Z,5.93
2022-08-16T15:05:24.642Z,5.75
2022-08-16T15:08:11.788Z,5.10
2022-08-16T15:10:58.730Z,5.60
2022-08-16T15:13:45.731Z,5.88
2022-08-16T15:16:35.334Z,5.82
2022-08-16T15:19:24.337Z,5.90
2022-08-16T15:22:21.939Z,5.65
2022-08-16T15:25:31.824Z,5.63
2022-08-16T15:28:23.606Z,5.55
2022-08-16T15:31:19.120Z,5.32
2022-08-16T15:34:06.112Z,5.10
2022-08-16T15:36:53.097Z,5.65
2022-08-16T15:39:40.366Z,5.72
2022-08-16T15:42:28.818Z,5.80
2022-08-16T15:45:36.780Z,5.50
2022-08-16T15:48:28.630Z,6.10
2022-08-16T15:51:16.531Z,5.28
2022-08-16T15:54:28.932Z,5.43
2022-08-16T15:57:12.351Z,5.22
2022-08-16T16:00:04.620Z,5.38
2022-08-16T16:03:18.895Z,5.40
2022-08-16T16:06:08.378Z,5.80
2022-08-16T16:08:55.520Z,6.70
2022-08-16T16:11:44.198Z,6.00
2022-08-16T16:14:31.831Z,6.03
2022-08-16T16:17:18.837Z,6.00
2022-08-16T16:20:13.772Z,5.90
2022-08-16T16:23:10.398Z,6.20
2022-08-16T16:25:59.423Z,6.07
2022-08-16T16:29:08.041Z,6.75
2022-08-16T16:32:01.261Z,6.15
2022-08-16T16:34:49.027Z,6.25
2022-08-16T16:37:39.492Z,6.68
2022-08-16T16:40:35.158Z,6.20
2022-08-16T16:43:26.014Z,6.32
2022-08-16T16:46:41.080Z,6.43
2022-08-16T16:49:28.755Z,6.28
2022-08-16T16:52:31.274Z,6.35
2022-08-16T16:55:25.053Z,6.22
2022-08-16T16:58:36.498Z,6.43
2022-08-16T17:01:56.913Z,5.93
2022-08-16T17:04:48.539Z,6.75
2022-08-16T17:07:35.496Z,6.10
2022-08-16T17:10:46.434Z,6.20
2022-08-16T17:13:30.689Z,6.03
2022-08-16T17:16:18.749Z,6.38
2022-08-16T17:19:16.824Z,5.97
2022-08-16T17:22:14.051Z,5.60
2022-08-16T17:25:03.048Z,5.95
2022-08-16T17:27:54.419Z,5.43
2022-08-16T17:30:44.686Z,5.90
2022-08-16T17:33:37.303Z,5.53
2022-08-16T17:36:52.707Z,5.32
2022-08-16T17:39:59.768Z,5.70
2022-08-16T17:42:52.451Z,6.15
2022-08-16T17:45:41.081Z,5.95
2022-08-16T17:48:30.955Z,6.00
2022-08-16T17:51:17.940Z,5.22
2022-08-16T17:54:30.160Z,5.80
2022-08-16T17:57:18.046Z,5.75
2022-08-16T18:00:20.191Z,5.13
2022-08-16T18:03:18.811Z,5.47
2022-08-16T18:06:25.824Z,5.68
2022-08-16T18:09:13.209Z,6.03
2022-08-16T18:12:23.967Z,5.90
2022-08-16T18:15:22.989Z,5.93
2022-08-16T18:18:10.098Z,6.13
2022-08-16T18:21:16.992Z,5.80
2022-08-16T18:24:04.617Z,5.63
2022-08-16T18:26:52.472Z,5.63
2022-08-16T18:29:39.982Z,5.90
2022-08-16T18:32:28.233Z,6.28
2022-08-16T18:35:17.443Z,6.32
2022-08-16T18:38:05.069Z,6.43
2022-08-16T18:40:52.748Z,5.97
2022-08-16T18:43:54.259Z,6.30
2022-08-16T18:46:51.064Z,5.72
2022-08-16T18:49:38.325Z,6.93
2022-08-16T18:52:26.099Z,6.18
2022-08-16T18:55:14.462Z,6.10
2022-08-16T18:58:05.664Z,6.45
2022-08-16T19:00:57.421Z,6.25
2022-08-16T19:03:44.465Z,6.50
2022-08-16T19:06:31.410Z,7.15
2022-08-16T19:09:18.447Z,6.72
2022-08-16T19:12:06.039Z,6.60
2022-08-16T19:14:52.950Z,5.95
2022-08-16T19:17:40.248Z,5.97
2022-08-16T19:20:28.362Z,6.35
2022-08-16T19:23:18.378Z,6.60
2022-08-16T19:26:20.270Z,6.95
2022-08-16T19:29:12.828Z,6.95
2022-08-16T19:32:00.613Z,6.10
2022-08-16T19:34:47.877Z,6.75
2022-08-16T19:37:35.620Z,6.32
2022-08-16T19:40:37.135Z,6.20
2022-08-16T19:43:24.363Z,6.35
2022-08-16T19:46:11.311Z,6.45
2022-08-16T19:48:58.338Z,6.75
2022-08-16T19:51:48.384Z,6.50
2022-08-16T19:54:39.674Z,6.45
2022-08-16T19:57:29.403Z,6.68
2022-08-16T20:00:18.904Z,6.53
2022-08-16T20:03:13.458Z,6.38
2022-08-16T20:06:00.671Z,7.03
2022-08-16T20:08:47.649Z,6.45
2022-08-16T20:11:35.335Z,7.05
2022-08-16T20:14:25.763Z,7.50
2022-08-16T20:17:14.468Z,6.13
2022-08-16T20:20:01.734Z,6.63
2022-08-16T20:22:53.849Z,6.15
2022-08-16T20:25:42.116Z,6.72
2022-08-16T20:28:51.997Z,6.65
2022-08-16T20:31:41.534Z,6.45
2022-08-16T20:34:28.539Z,6.95
2022-08-16T20:37:16.549Z,7.20
2022-08-16T20:40:28.182Z,6.70
2022-08-16T20:43:16.446Z,7.43
2022-08-16T20:46:04.337Z,7.60
2022-08-16T20:48:51.268Z,6.93
2022-08-16T20:51:49.366Z,7.50
2022-08-16T20:54:38.485Z,7.15
2022-08-16T20:57:25.473Z,8.00
2022-08-16T21:00:14.018Z,7.40
2022-08-16T21:03:09.375Z,7.47
2022-08-16T21:06:02.234Z,7.00
2022-08-16T21:08:53.531Z,7.00
2022-08-16T21:11:41.002Z,6.80
2022-08-16T21:14:29.507Z,7.30
2022-08-16T21:17:17.100Z,6.95
2022-08-16T21:20:04.569Z,7.35
2022-08-16T21:22:57.423Z,7.45
2022-08-16T21:25:58.393Z,7.57
2022-08-16T21:28:46.879Z,7.60
2022-08-16T21:31:33.872Z,7.63
2022-08-16T21:34:21.007Z,7.65
2022-08-16T21:37:08.460Z,8.35
2022-08-16T21:39:55.497Z,7.38
2022-08-16T21:42:43.314Z,7.63
2022-08-16T21:45:30.370Z,7.25
2022-08-16T21:48:17.365Z,8.20
2022-08-16T21:51:21.320Z,8.05
2022-08-16T21:54:08.714Z,7.53
2022-08-16T21:56:55.688Z,7.07
2022-08-16T21:59:43.933Z,8.27
2022-08-16T22:02:35.823Z,9.10
2022-08-16T22:05:26.472Z,9.80
2022-08-16T22:08:14.595Z,9.20
2022-08-16T22:11:06.791Z,8.73
2022-08-16T22:13:57.724Z,8.20
2022-08-16T22:16:47.079Z,8.40
2022-08-16T22:19:34.054Z,8.90
2022-08-16T22:22:21.043Z,8.90
2022-08-16T22:25:08.357Z,7.82
2022-08-16T22:27:55.300Z,8.25
2022-08-16T22:30:42.795Z,8.50
2022-08-16T22:33:30.135Z,9.45
2022-08-16T22:36:17.150Z,8.82
2022-08-16T22:39:08.333Z,9.38
2022-08-16T22:41:55.332Z,8.85
2022-08-16T22:44:46.124Z,9.70
2022-08-16T22:47:33.461Z,9.02
2022-08-16T22:50:20.484Z,8.63
2022-08-16T22:53:09.021Z,9.38
2022-08-16T22:55:57.205Z,9.15
2022-08-16T22:58:46.087Z,8.52
2022-08-16T23:01:33.123Z,8.95
2022-08-16T23:04:20.451Z,9.93
2022-08-16T23:07:07.452Z,9.10
2022-08-16T23:09:55.107Z,9.60
2022-08-16T23:12:57.223Z,9.77
2022-08-16T23:15:51.822Z,9.80
2022-08-16T23:18:40.085Z,9.23
2022-08-16T23:21:27.724Z,9.48
2022-08-16T23:24:15.894Z,8.70
2022-08-16T23:27:02.880Z,9.07
2022-08-16T23:29:49.853Z,9.48
2022-08-16T23:32:43.955Z,9.15
2022-08-16T23:35:45.210Z,9.55
2022-08-16T23:38:38.179Z,9.77
2022-08-16T23:41:26.381Z,9.77
2022-08-16T23:44:55.699Z,9.35
2022-08-16T23:47:20.776Z,9.75
2022-08-16T23:50:08.538Z,9.02
2022-08-16T23:53:00.527Z,9.65
2022-08-16T23:55:56.498Z,9.57
2022-08-16T23:58:47.381Z,10.27
